sensor_id;sensor_type;location;lat;lon;timestamp;temperature;humidity
24682;DHT22;12802;53.390;-2.328;2023-04-01T00:00:12;9.60;99.90
24682;DHT22;12802;53.390;-2.328;2023-04-01T00:02:38;9.60;99.90
24682;DHT22;12802;53.390;-2.328;2023-04-01T00:05:05;9.50;99.90
24682;DHT22;12802;53.390;-2.328;2023-04-01T00:07:31;9.50;99.90
24682;DHT22;12802;53.390;-2.328;2023-04-01T00:09:57;9.60;99.90
24682;DHT22;12802;53.390;-2.328;2023-04-01T00:12:23;9.60;99.90
24682;DHT22;12802;53.390;-2.328;2023-04-01T00:14:50;9.70;99.90
24682;DHT22;12802;53.390;-2.328;2023-04-01T00:17:16;9.70;99.90
24682;DHT22;12802;53.390;-2.328;2023-04-01T00:19:42;9.70;99.90
24682;DHT22;12802;53.390;-2.328;2023-04-01T00:22:08;9.60;99.90
24682;DHT22;12802;53.390;-2.328;2023-04-01T00:24:37;9.50;99.90
24682;DHT22;12802;53.390;-2.328;2023-04-01T00:27:04;9.50;99.90
24682;DHT22;12802;53.390;-2.328;2023-04-01T00:29:30;9.50;99.90
24682;DHT22;12802;53.390;-2.328;2023-04-01T00:31:59;9.50;99.90
24682;DHT22;12802;53.390;-2.328;2023-04-01T00:34:25;9.40;99.90
24682;DHT22;12802;53.390;-2.328;2023-04-01T00:36:52;9.40;99.90
24682;DHT22;12802;53.390;-2.328;2023-04-01T00:39:21;9.40;99.90
24682;DHT22;12802;53.390;-2.328;2023-04-01T00:41:47;9.40;99.90
24682;DHT22;12802;53.390;-2.328;2023-04-01T00:44:33;9.30;99.90
24682;DHT22;12802;53.390;-2.328;2023-04-01T00:47:00;9.30;99.90
24682;DHT22;12802;53.390;-2.328;2023-04-01T00:49:47;9.20;99.90
24682;DHT22;12802;53.390;-2.328;2023-04-01T00:52:18;9.30;99.90
24682;DHT22;12802;53.390;-2.328;2023-04-01T00:54:48;9.20;99.90
24682;DHT22;12802;53.390;-2.328;2023-04-01T00:57:17;9.20;99.90
24682;DHT22;12802;53.390;-2.328;2023-04-01T00:59:46;9.20;99.90
24682;DHT22;12802;53.390;-2.328;2023-04-01T01:02:15;9.20;99.90
24682;DHT22;12802;53.390;-2.328;2023-04-01T01:04:41;9.20;99.90
24682;DHT22;12802;53.390;-2.328;2023-04-01T01:07:35;9.20;99.90
24682;DHT22;12802;53.390;-2.328;2023-04-01T01:15:50;9.20;99.90
24682;DHT22;12802;53.390;-2.328;2023-04-01T01:18:19;9.20;99.90
24682;DHT22;12802;53.390;-2.328;2023-04-01T01:37:02;9.10;99.90
24682;DHT22;12802;53.390;-2.328;2023-04-01T01:39:31;9.00;99.90
24682;DHT22;12802;53.390;-2.328;2023-04-01T01:42:01;9.00;99.90
24682;DHT22;12802;53.390;-2.328;2023-04-01T01:44:29;9.10;99.90
24682;DHT22;12802;53.390;-2.328;2023-04-01T01:46:56;9.00;99.90
24682;DHT22;12802;53.390;-2.328;2023-04-01T01:49:23;9.00;99.90
24682;DHT22;12802;53.390;-2.328;2023-04-01T01:51:49;9.00;99.90
24682;DHT22;12802;53.390;-2.328;2023-04-01T01:54:18;9.00;99.90
24682;DHT22;12802;53.390;-2.328;2023-04-01T01:56:46;9.00;99.90
24682;DHT22;12802;53.390;-2.328;2023-04-01T01:59:16;9.00;99.90
24682;DHT22;12802;53.390;-2.328;2023-04-01T02:01:47;9.00;99.90
24682;DHT22;12802;53.390;-2.328;2023-04-01T02:04:15;9.00;99.90
24682;DHT22;12802;53.390;-2.328;2023-04-01T02:06:50;9.00;99.90
24682;DHT22;12802;53.390;-2.328;2023-04-01T02:09:19;9.00;99.90
24682;DHT22;12802;53.390;-2.328;2023-04-01T02:11:52;9.00;99.90
24682;DHT22;12802;53.390;-2.328;2023-04-01T02:14:24;9.00;99.90
24682;DHT22;12802;53.390;-2.328;2023-04-01T02:19:18;9.00;99.90
24682;DHT22;12802;53.390;-2.328;2023-04-01T02:21:52;8.90;99.90
24682;DHT22;12802;53.390;-2.328;2023-04-01T02:24:20;8.90;99.90
24682;DHT22;12802;53.390;-2.328;2023-04-01T02:26:51;8.80;99.90
24682;DHT22;12802;53.390;-2.328;2023-04-01T02:29:20;8.80;99.90
24682;DHT22;12802;53.390;-2.328;2023-04-01T02:31:47;8.70;99.90
24682;DHT22;12802;53.390;-2.328;2023-04-01T02:34:14;8.80;99.90
24682;DHT22;12802;53.390;-2.328;2023-04-01T02:36:41;8.70;99.90
24682;DHT22;12802;53.390;-2.328;2023-04-01T02:39:08;8.80;99.90
24682;DHT22;12802;53.390;-2.328;2023-04-01T02:41:42;8.70;99.90
24682;DHT22;12802;53.390;-2.328;2023-04-01T02:44:09;8.70;99.90
24682;DHT22;12802;53.390;-2.328;2023-04-01T02:46:35;8.70;99.90
24682;DHT22;12802;53.390;-2.328;2023-04-01T02:49:01;8.70;99.90
24682;DHT22;12802;53.390;-2.328;2023-04-01T02:51:27;8.70;99.90
24682;DHT22;12802;53.390;-2.328;2023-04-01T02:53:53;8.80;99.90
24682;DHT22;12802;53.390;-2.328;2023-04-01T02:56:19;8.80;99.90
24682;DHT22;12802;53.390;-2.328;2023-04-01T02:58:46;8.70;99.90
24682;DHT22;12802;53.390;-2.328;2023-04-01T03:01:12;8.80;99.90
24682;DHT22;12802;53.390;-2.328;2023-04-01T03:03:37;8.70;99.90
24682;DHT22;12802;53.390;-2.328;2023-04-01T03:06:12;8.70;99.90
24682;DHT22;12802;53.390;-2.328;2023-04-01T03:08:38;8.70;99.90
24682;DHT22;12802;53.390;-2.328;2023-04-01T03:11:04;8.60;99.90
24682;DHT22;12802;53.390;-2.328;2023-04-01T03:13:33;8.50;99.90
24682;DHT22;12802;53.390;-2.328;2023-04-01T03:15:59;8.50;99.90
24682;DHT22;12802;53.390;-2.328;2023-04-01T03:18:25;8.50;99.90
24682;DHT22;12802;53.390;-2.328;2023-04-01T03:20:51;8.50;99.90
24682;DHT22;12802;53.390;-2.328;2023-04-01T03:23:17;8.50;99.90
24682;DHT22;12802;53.390;-2.328;2023-04-01T03:25:45;8.50;99.90
24682;DHT22;12802;53.390;-2.328;2023-04-01T03:28:11;8.60;99.90
24682;DHT22;12802;53.390;-2.328;2023-04-01T03:30:38;8.60;99.90
24682;DHT22;12802;53.390;-2.328;2023-04-01T03:33:03;8.60;99.90
24682;DHT22;12802;53.390;-2.328;2023-04-01T03:35:31;8.60;99.90
24682;DHT22;12802;53.390;-2.328;2023-04-01T03:37:57;8.50;99.90
24682;DHT22;12802;53.390;-2.328;2023-04-01T03:40:23;8.50;99.90
24682;DHT22;12802;53.390;-2.328;2023-04-01T03:42:49;8.50;99.90
24682;DHT22;12802;53.390;-2.328;2023-04-01T03:45:15;8.50;99.90
24682;DHT22;12802;53.390;-2.328;2023-04-01T03:47:41;8.50;99.90
24682;DHT22;12802;53.390;-2.328;2023-04-01T03:50:07;8.50;99.90
24682;DHT22;12802;53.390;-2.328;2023-04-01T03:52:34;8.50;99.90
24682;DHT22;12802;53.390;-2.328;2023-04-01T03:55:00;8.40;99.90
24682;DHT22;12802;53.390;-2.328;2023-04-01T03:57:27;8.40;99.90
24682;DHT22;12802;53.390;-2.328;2023-04-01T03:59:59;8.30;99.90
24682;DHT22;12802;53.390;-2.328;2023-04-01T04:02:25;8.30;99.90
24682;DHT22;12802;53.390;-2.328;2023-04-01T04:04:51;8.30;99.90
24682;DHT22;12802;53.390;-2.328;2023-04-01T04:07:17;8.30;99.90
24682;DHT22;12802;53.390;-2.328;2023-04-01T04:10:04;8.30;99.90
24682;DHT22;12802;53.390;-2.328;2023-04-01T04:12:30;8.20;99.90
24682;DHT22;12802;53.390;-2.328;2023-04-01T04:14:56;8.20;99.90
24682;DHT22;12802;53.390;-2.328;2023-04-01T04:17:22;8.10;99.90
24682;DHT22;12802;53.390;-2.328;2023-04-01T04:19:48;8.10;99.90
24682;DHT22;12802;53.390;-2.328;2023-04-01T04:22:14;8.10;99.90
24682;DHT22;12802;53.390;-2.328;2023-04-01T04:24:40;8.00;99.90
24682;DHT22;12802;53.390;-2.328;2023-04-01T04:27:09;7.90;99.90
24682;DHT22;12802;53.390;-2.328;2023-04-01T04:29:41;7.80;99.90
24682;DHT22;12802;53.390;-2.328;2023-04-01T04:32:07;7.90;99.90
24682;DHT22;12802;53.390;-2.328;2023-04-01T04:34:33;7.90;99.90
24682;DHT22;12802;53.390;-2.328;2023-04-01T04:36:59;7.90;99.90
24682;DHT22;12802;53.390;-2.328;2023-04-01T04:39:29;7.90;99.90
24682;DHT22;12802;53.390;-2.328;2023-04-01T04:41:55;7.80;99.90
24682;DHT22;12802;53.390;-2.328;2023-04-01T04:44:21;7.80;99.90
24682;DHT22;12802;53.390;-2.328;2023-04-01T04:46:47;7.90;99.90
24682;DHT22;12802;53.390;-2.328;2023-04-01T04:49:15;7.90;99.90
24682;DHT22;12802;53.390;-2.328;2023-04-01T04:51:41;7.80;99.90
24682;DHT22;12802;53.390;-2.328;2023-04-01T04:54:07;7.80;99.90
24682;DHT22;12802;53.390;-2.328;2023-04-01T04:56:53;7.90;99.90
24682;DHT22;12802;53.390;-2.328;2023-04-01T04:59:20;7.80;99.90
24682;DHT22;12802;53.390;-2.328;2023-04-01T05:01:55;7.80;99.90
24682;DHT22;12802;53.390;-2.328;2023-04-01T05:04:20;7.80;99.90
24682;DHT22;12802;53.390;-2.328;2023-04-01T05:06:46;7.80;99.90
24682;DHT22;12802;53.390;-2.328;2023-04-01T05:09:13;7.80;99.90
24682;DHT22;12802;53.390;-2.328;2023-04-01T05:11:40;7.80;99.90
24682;DHT22;12802;53.390;-2.328;2023-04-01T05:14:12;7.80;99.90
24682;DHT22;12802;53.390;-2.328;2023-04-01T05:16:39;7.80;99.90
24682;DHT22;12802;53.390;-2.328;2023-04-01T05:19:05;7.90;99.90
24682;DHT22;12802;53.390;-2.328;2023-04-01T05:21:31;7.90;99.90
24682;DHT22;12802;53.390;-2.328;2023-04-01T05:23:57;7.80;99.90
24682;DHT22;12802;53.390;-2.328;2023-04-01T05:26:24;7.80;99.90
24682;DHT22;12802;53.390;-2.328;2023-04-01T05:28:50;7.80;99.90
24682;DHT22;12802;53.390;-2.328;2023-04-01T05:31:16;7.80;99.90
24682;DHT22;12802;53.390;-2.328;2023-04-01T05:33:44;7.80;99.90
24682;DHT22;12802;53.390;-2.328;2023-04-01T05:36:12;7.80;99.90
24682;DHT22;12802;53.390;-2.328;2023-04-01T05:38:38;7.80;99.90
24682;DHT22;12802;53.390;-2.328;2023-04-01T05:41:07;7.80;99.90
24682;DHT22;12802;53.390;-2.328;2023-04-01T05:43:37;7.80;99.90
24682;DHT22;12802;53.390;-2.328;2023-04-01T05:46:23;7.80;99.90
24682;DHT22;12802;53.390;-2.328;2023-04-01T05:48:55;7.80;99.90
24682;DHT22;12802;53.390;-2.328;2023-04-01T05:51:23;7.80;99.90
24682;DHT22;12802;53.390;-2.328;2023-04-01T05:53:49;7.80;99.90
24682;DHT22;12802;53.390;-2.328;2023-04-01T05:56:15;7.80;99.90
24682;DHT22;12802;53.390;-2.328;2023-04-01T05:58:48;7.80;99.90
24682;DHT22;12802;53.390;-2.328;2023-04-01T06:01:16;7.80;99.90
24682;DHT22;12802;53.390;-2.328;2023-04-01T06:03:43;7.80;99.90
24682;DHT22;12802;53.390;-2.328;2023-04-01T06:06:20;7.80;99.90
24682;DHT22;12802;53.390;-2.328;2023-04-01T06:08:48;7.80;99.90
24682;DHT22;12802;53.390;-2.328;2023-04-01T06:11:24;7.80;99.90
24682;DHT22;12802;53.390;-2.328;2023-04-01T06:25:34;7.80;99.90
24682;DHT22;12802;53.390;-2.328;2023-04-01T06:30:43;7.90;99.90
24682;DHT22;12802;53.390;-2.328;2023-04-01T06:41:48;8.00;99.90
24682;DHT22;12802;53.390;-2.328;2023-04-01T06:47:28;8.10;99.90
24682;DHT22;12802;53.390;-2.328;2023-04-01T06:56:37;8.10;99.90
24682;DHT22;12802;53.390;-2.328;2023-04-01T06:59:14;8.10;99.90
24682;DHT22;12802;53.390;-2.328;2023-04-01T07:01:57;8.10;99.90
24682;DHT22;12802;53.390;-2.328;2023-04-01T07:04:30;8.10;99.90
24682;DHT22;12802;53.390;-2.328;2023-04-01T07:07:10;8.20;99.90
24682;DHT22;12802;53.390;-2.328;2023-04-01T07:09:52;8.20;99.90
24682;DHT22;12802;53.390;-2.328;2023-04-01T07:12:51;8.30;99.90
24682;DHT22;12802;53.390;-2.328;2023-04-01T07:15:40;8.20;99.90
24682;DHT22;12802;53.390;-2.328;2023-04-01T07:18:32;8.30;99.90
24682;DHT22;12802;53.390;-2.328;2023-04-01T07:21:01;8.30;99.90
24682;DHT22;12802;53.390;-2.328;2023-04-01T07:23:39;8.30;99.90
24682;DHT22;12802;53.390;-2.328;2023-04-01T07:26:26;8.30;99.90
24682;DHT22;12802;53.390;-2.328;2023-04-01T07:29:12;8.30;99.90
24682;DHT22;12802;53.390;-2.328;2023-04-01T07:35:09;8.30;99.90
24682;DHT22;12802;53.390;-2.328;2023-04-01T07:38:11;8.30;99.90
24682;DHT22;12802;53.390;-2.328;2023-04-01T07:47:09;8.60;99.90
24682;DHT22;12802;53.390;-2.328;2023-04-01T07:50:02;8.70;99.90
24682;DHT22;12802;53.390;-2.328;2023-04-01T07:53:03;8.60;99.90
24682;DHT22;12802;53.390;-2.328;2023-04-01T07:55:58;8.70;99.90
24682;DHT22;12802;53.390;-2.328;2023-04-01T08:01:16;8.90;99.90
24682;DHT22;12802;53.390;-2.328;2023-04-01T08:18:20;9.00;99.90
24682;DHT22;12802;53.390;-2.328;2023-04-01T08:20:59;9.00;99.90
24682;DHT22;12802;53.390;-2.328;2023-04-01T08:23:43;9.10;99.90
24682;DHT22;12802;53.390;-2.328;2023-04-01T08:29:03;9.20;99.90
24682;DHT22;12802;53.390;-2.328;2023-04-01T08:32:00;9.20;99.90
24682;DHT22;12802;53.390;-2.328;2023-04-01T08:34:35;9.30;99.90
24682;DHT22;12802;53.390;-2.328;2023-04-01T08:37:11;9.10;99.90
24682;DHT22;12802;53.390;-2.328;2023-04-01T08:39:44;9.00;99.90
24682;DHT22;12802;53.390;-2.328;2023-04-01T09:09:24;9.10;99.90
24682;DHT22;12802;53.390;-2.328;2023-04-01T09:12:18;9.10;99.90
24682;DHT22;12802;53.390;-2.328;2023-04-01T09:24:08;9.60;99.90
24682;DHT22;12802;53.390;-2.328;2023-04-01T09:27:56;9.90;99.90
24682;DHT22;12802;53.390;-2.328;2023-04-01T09:41:02;10.90;99.90
24682;DHT22;12802;53.390;-2.328;2023-04-01T09:47:05;10.70;99.90
24682;DHT22;12802;53.390;-2.328;2023-04-01T09:49:41;10.60;99.90
24682;DHT22;12802;53.390;-2.328;2023-04-01T09:52:40;10.40;99.90
24682;DHT22;12802;53.390;-2.328;2023-04-01T09:55:39;10.50;99.90
24682;DHT22;12802;53.390;-2.328;2023-04-01T10:01:42;11.10;99.90
24682;DHT22;12802;53.390;-2.328;2023-04-01T10:15:19;11.00;99.90
24682;DHT22;12802;53.390;-2.328;2023-04-01T10:28:40;10.60;99.90
24682;DHT22;12802;53.390;-2.328;2023-04-01T10:34:09;11.10;99.90
24682;DHT22;12802;53.390;-2.328;2023-04-01T10:42:44;11.30;99.90
24682;DHT22;12802;53.390;-2.328;2023-04-01T10:48:57;11.00;99.90
24682;DHT22;12802;53.390;-2.328;2023-04-01T11:24:20;12.30;99.90
24682;DHT22;12802;53.390;-2.328;2023-04-01T11:29:56;12.10;99.90
24682;DHT22;12802;53.390;-2.328;2023-04-01T11:32:40;11.70;99.90
24682;DHT22;12802;53.390;-2.328;2023-04-01T11:49:59;11.80;99.90
24682;DHT22;12802;53.390;-2.328;2023-04-01T11:53:19;11.50;99.90
24682;DHT22;12802;53.390;-2.328;2023-04-01T12:04:30;11.20;99.90
24682;DHT22;12802;53.390;-2.328;2023-04-01T12:07:21;11.20;99.90
24682;DHT22;12802;53.390;-2.328;2023-04-01T12:18:38;10.90;99.90
24682;DHT22;12802;53.390;-2.328;2023-04-01T12:21:27;10.90;99.90
24682;DHT22;12802;53.390;-2.328;2023-04-01T12:32:29;10.80;99.90
24682;DHT22;12802;53.390;-2.328;2023-04-01T12:35:05;10.90;99.90
24682;DHT22;12802;53.390;-2.328;2023-04-01T12:52:15;10.70;99.90
24682;DHT22;12802;53.390;-2.328;2023-04-01T13:09:21;10.70;99.90
24682;DHT22;12802;53.390;-2.328;2023-04-01T13:17:17;10.90;99.90
24682;DHT22;12802;53.390;-2.328;2023-04-01T13:19:58;10.90;99.90
24682;DHT22;12802;53.390;-2.328;2023-04-01T13:25:10;11.10;99.90
24682;DHT22;12802;53.390;-2.328;2023-04-01T13:27:44;10.90;99.90
24682;DHT22;12802;53.390;-2.328;2023-04-01T13:30:30;10.60;99.90
24682;DHT22;12802;53.390;-2.328;2023-04-01T13:41:38;10.70;99.90
24682;DHT22;12802;53.390;-2.328;2023-04-01T13:44:11;10.70;99.90
24682;DHT22;12802;53.390;-2.328;2023-04-01T13:55:11;10.70;99.90
24682;DHT22;12802;53.390;-2.328;2023-04-01T13:57:52;10.80;99.90
24682;DHT22;12802;53.390;-2.328;2023-04-01T14:03:41;10.80;99.90
24682;DHT22;12802;53.390;-2.328;2023-04-01T14:40:56;10.60;99.90
24682;DHT22;12802;53.390;-2.328;2023-04-01T14:52:05;10.40;99.90
24682;DHT22;12802;53.390;-2.328;2023-04-01T14:54:37;10.40;99.90
24682;DHT22;12802;53.390;-2.328;2023-04-01T14:59:48;10.60;99.90
24682;DHT22;12802;53.390;-2.328;2023-04-01T15:02:33;10.50;99.90
24682;DHT22;12802;53.390;-2.328;2023-04-01T15:13:41;10.50;99.90
24682;DHT22;12802;53.390;-2.328;2023-04-01T15:22:00;10.40;99.90
24682;DHT22;12802;53.390;-2.328;2023-04-01T15:30:25;10.50;99.90
24682;DHT22;12802;53.390;-2.328;2023-04-01T15:41:10;10.20;99.90
24682;DHT22;12802;53.390;-2.328;2023-04-01T15:43:47;10.30;99.90
24682;DHT22;12802;53.390;-2.328;2023-04-01T16:19:37;10.20;99.90
24682;DHT22;12802;53.390;-2.328;2023-04-01T16:28:13;9.90;99.90
24682;DHT22;12802;53.390;-2.328;2023-04-01T16:30:50;9.70;99.90
24682;DHT22;12802;53.390;-2.328;2023-04-01T16:33:51;9.50;99.90
24682;DHT22;12802;53.390;-2.328;2023-04-01T16:50:41;9.20;99.90
24682;DHT22;12802;53.390;-2.328;2023-04-01T16:55:57;9.30;99.90
24682;DHT22;12802;53.390;-2.328;2023-04-01T16:58:36;9.40;99.90
24682;DHT22;12802;53.390;-2.328;2023-04-01T17:01:07;9.50;99.90
24682;DHT22;12802;53.390;-2.328;2023-04-01T17:03:44;9.60;99.90
24682;DHT22;12802;53.390;-2.328;2023-04-01T17:06:31;9.60;99.90
24682;DHT22;12802;53.390;-2.328;2023-04-01T17:23:01;9.70;99.90
24682;DHT22;12802;53.390;-2.328;2023-04-01T17:35:56;9.70;99.90
24682;DHT22;12802;53.390;-2.328;2023-04-01T17:41:48;9.70;99.90
24682;DHT22;12802;53.390;-2.328;2023-04-01T17:47:48;9.70;99.90
24682;DHT22;12802;53.390;-2.328;2023-04-01T17:53:36;9.70;99.90
24682;DHT22;12802;53.390;-2.328;2023-04-01T17:56:11;9.70;99.90
24682;DHT22;12802;53.390;-2.328;2023-04-01T17:59:02;9.70;99.90
24682;DHT22;12802;53.390;-2.328;2023-04-01T18:02:19;9.70;99.90
24682;DHT22;12802;53.390;-2.328;2023-04-01T18:04:44;9.60;99.90
24682;DHT22;12802;53.390;-2.328;2023-04-01T18:10:29;9.70;99.90
24682;DHT22;12802;53.390;-2.328;2023-04-01T18:26:40;9.50;99.90
24682;DHT22;12802;53.390;-2.328;2023-04-01T18:35:34;9.70;99.90
24682;DHT22;12802;53.390;-2.328;2023-04-01T18:40:36;9.60;99.90
24682;DHT22;12802;53.390;-2.328;2023-04-01T18:46:21;9.50;99.90
24682;DHT22;12802;53.390;-2.328;2023-04-01T18:49:10;9.50;99.90
24682;DHT22;12802;53.390;-2.328;2023-04-01T18:51:48;9.50;99.90
24682;DHT22;12802;53.390;-2.328;2023-04-01T18:54:22;9.50;99.90
24682;DHT22;12802;53.390;-2.328;2023-04-01T18:56:49;9.40;99.90
24682;DHT22;12802;53.390;-2.328;2023-04-01T18:59:34;9.40;99.90
24682;DHT22;12802;53.390;-2.328;2023-04-01T19:03:18;9.40;99.90
24682;DHT22;12802;53.390;-2.328;2023-04-01T19:05:18;9.40;99.90
24682;DHT22;12802;53.390;-2.328;2023-04-01T19:07:48;9.50;99.90
24682;DHT22;12802;53.390;-2.328;2023-04-01T19:23:30;9.50;99.90
24682;DHT22;12802;53.390;-2.328;2023-04-01T19:26:00;9.50;99.90
24682;DHT22;12802;53.390;-2.328;2023-04-01T19:28:48;9.50;99.90
24682;DHT22;12802;53.390;-2.328;2023-04-01T19:39:31;9.50;99.90
24682;DHT22;12802;53.390;-2.328;2023-04-01T19:48:03;9.50;99.90
24682;DHT22;12802;53.390;-2.328;2023-04-01T19:50:39;9.50;99.90
24682;DHT22;12802;53.390;-2.328;2023-04-01T19:56:22;9.40;99.90
24682;DHT22;12802;53.390;-2.328;2023-04-01T19:58:56;9.40;99.90
24682;DHT22;12802;53.390;-2.328;2023-04-01T20:04:23;9.40;99.90
24682;DHT22;12802;53.390;-2.328;2023-04-01T20:07:05;9.50;99.90
24682;DHT22;12802;53.390;-2.328;2023-04-01T20:14:54;9.60;99.90
24682;DHT22;12802;53.390;-2.328;2023-04-01T20:17:33;9.60;99.90
24682;DHT22;12802;53.390;-2.328;2023-04-01T20:28:02;9.50;99.90
24682;DHT22;12802;53.390;-2.328;2023-04-01T20:33:44;9.30;99.90
24682;DHT22;12802;53.390;-2.328;2023-04-01T20:50:51;9.30;99.90
24682;DHT22;12802;53.390;-2.328;2023-04-01T20:54:12;9.30;99.90
24682;DHT22;12802;53.390;-2.328;2023-04-01T20:56:22;9.40;99.90
24682;DHT22;12802;53.390;-2.328;2023-04-01T21:09:37;9.30;99.90
24682;DHT22;12802;53.390;-2.328;2023-04-01T21:15:02;9.40;99.90
24682;DHT22;12802;53.390;-2.328;2023-04-01T21:17:34;9.30;99.90
24682;DHT22;12802;53.390;-2.328;2023-04-01T21:20:28;9.30;99.90
24682;DHT22;12802;53.390;-2.328;2023-04-01T21:23:10;9.20;99.90
24682;DHT22;12802;53.390;-2.328;2023-04-01T21:39:46;9.20;99.90
24682;DHT22;12802;53.390;-2.328;2023-04-01T21:50:43;9.30;99.90
24682;DHT22;12802;53.390;-2.328;2023-04-01T22:04:42;9.10;99.90
24682;DHT22;12802;53.390;-2.328;2023-04-01T22:07:17;9.10;99.90
24682;DHT22;12802;53.390;-2.328;2023-04-01T22:18:09;9.10;99.90
24682;DHT22;12802;53.390;-2.328;2023-04-01T22:26:37;9.10;99.90
24682;DHT22;12802;53.390;-2.328;2023-04-01T22:29:35;9.10;99.90
24682;DHT22;12802;53.390;-2.328;2023-04-01T22:35:13;9.00;99.90
24682;DHT22;12802;53.390;-2.328;2023-04-01T22:43:35;9.00;99.90
24682;DHT22;12802;53.390;-2.328;2023-04-01T22:54:39;9.10;99.90
24682;DHT22;12802;53.390;-2.328;2023-04-01T22:57:16;9.20;99.90
24682;DHT22;12802;53.390;-2.328;2023-04-01T22:59:52;9.20;99.90
24682;DHT22;12802;53.390;-2.328;2023-04-01T23:02:33;9.20;99.90
24682;DHT22;12802;53.390;-2.328;2023-04-01T23:05:03;9.10;99.90
24682;DHT22;12802;53.390;-2.328;2023-04-01T23:10:39;9.10;99.90
24682;DHT22;12802;53.390;-2.328;2023-04-01T23:13:05;9.10;99.90
24682;DHT22;12802;53.390;-2.328;2023-04-01T23:15:34;9.10;99.90
24682;DHT22;12802;53.390;-2.328;2023-04-01T23:18:03;9.00;99.90
24682;DHT22;12802;53.390;-2.328;2023-04-01T23:26:56;9.00;99.90
24682;DHT22;12802;53.390;-2.328;2023-04-01T23:28:53;9.00;99.90
24682;DHT22;12802;53.390;-2.328;2023-04-01T23:33:57;8.90;99.90
24682;DHT22;12802;53.390;-2.328;2023-04-01T23:36:24;8.90;99.90
24682;DHT22;12802;53.390;-2.328;2023-04-01T23:38:51;8.90;99.90
24682;DHT22;12802;53.390;-2.328;2023-04-01T23:41:26;8.80;99.90
24682;DHT22;12802;53.390;-2.328;2023-04-01T23:44:09;8.70;99.90
24682;DHT22;12802;53.390;-2.328;2023-04-01T23:46:37;8.70;99.90
24682;DHT22;12802;53.390;-2.328;2023-04-01T23:49:09;8.70;99.90
24682;DHT22;12802;53.390;-2.328;2023-04-01T23:51:39;8.70;99.90
24682;DHT22;12802;53.390;-2.328;2023-04-01T23:54:31;8.70;99.90
24682;DHT22;12802;53.390;-2.328;2023-04-01T23:56:59;8.70;99.90
24682;DHT22;12802;53.390;-2.328;2023-04-01T23:59:29;8.70;99.90
